Snoqualmie River: South Fork station

back to: Snoqualmie river
South Fork station Summary - (NOAA Hydrograph: GARW1)
Latest reading:
Wed09/19 10:15 am 9.81 ft 33 cfs (steady)
Past 24hr max:
Tue09/18 10:15 am 9.86 ft 39 cfs
Forecasted crests: (published Tue 09/18/18 02:28 pm)
Thu09/20 11:00 pm 9.85 ft 37 cfs
Sat09/22 05:00 am 10.1 ft 73 cfs
Sun09/23 05:00 pm 9.83 ft 35 cfs

South Fork station Details

Latest Readings

Last 100 Readings:
Wed09/19 10:15 am 9.81 ft 33 cfs
Wed09/19 10:00 am 9.81 ft 33 cfs
Wed09/19 09:45 am 9.81 ft 33 cfs
Wed09/19 09:30 am 9.81 ft 33 cfs
Wed09/19 09:15 am 9.81 ft 33 cfs
Wed09/19 09:00 am 9.82 ft 34 cfs
Wed09/19 08:45 am 9.82 ft 34 cfs
Wed09/19 08:30 am 9.82 ft 34 cfs
Wed09/19 08:15 am 9.82 ft 34 cfs
Wed09/19 08:00 am 9.82 ft 34 cfs
Wed09/19 07:45 am 9.82 ft 34 cfs
Wed09/19 07:30 am 9.82 ft 34 cfs
Wed09/19 07:15 am 9.82 ft 34 cfs
Wed09/19 07:00 am 9.82 ft 34 cfs
Wed09/19 06:45 am 9.82 ft 34 cfs
Wed09/19 06:30 am 9.82 ft 34 cfs
Wed09/19 06:15 am 9.82 ft 34 cfs
Wed09/19 06:00 am 9.82 ft 34 cfs
Wed09/19 05:45 am 9.82 ft 34 cfs
Wed09/19 05:30 am 9.82 ft 34 cfs
Wed09/19 05:15 am 9.82 ft 34 cfs
Wed09/19 05:00 am 9.82 ft 34 cfs
Wed09/19 04:45 am 9.82 ft 34 cfs
Wed09/19 04:30 am 9.82 ft 34 cfs
Wed09/19 04:15 am 9.82 ft 34 cfs
Wed09/19 04:00 am 9.82 ft 34 cfs
Wed09/19 03:45 am 9.82 ft 34 cfs
Wed09/19 03:30 am 9.82 ft 34 cfs
Wed09/19 03:15 am 9.82 ft 34 cfs
Wed09/19 03:00 am 9.82 ft 34 cfs
Wed09/19 02:45 am 9.82 ft 34 cfs
Wed09/19 02:30 am 9.82 ft 34 cfs
Wed09/19 02:15 am 9.82 ft 34 cfs
Wed09/19 02:00 am 9.82 ft 34 cfs
Wed09/19 01:45 am 9.82 ft 34 cfs
Wed09/19 01:30 am 9.83 ft 35 cfs
Wed09/19 01:15 am 9.83 ft 35 cfs
Wed09/19 01:00 am 9.83 ft 35 cfs
Wed09/19 12:45 am 9.83 ft 35 cfs
Wed09/19 12:30 am 9.83 ft 35 cfs
Wed09/19 12:15 am 9.83 ft 35 cfs
Wed09/19 12:00 am 9.82 ft 34 cfs
Tue09/18 11:45 pm 9.83 ft 35 cfs
Tue09/18 11:30 pm 9.83 ft 35 cfs
Tue09/18 11:15 pm 9.83 ft 35 cfs
Tue09/18 11:00 pm 9.83 ft 35 cfs
Tue09/18 10:45 pm 9.83 ft 35 cfs
Tue09/18 10:30 pm 9.83 ft 35 cfs
Tue09/18 10:15 pm 9.83 ft 35 cfs
Tue09/18 10:00 pm 9.83 ft 35 cfs
Tue09/18 09:45 pm 9.83 ft 35 cfs
Tue09/18 09:30 pm 9.83 ft 35 cfs
Tue09/18 09:15 pm 9.83 ft 35 cfs
Tue09/18 09:00 pm 9.83 ft 35 cfs
Tue09/18 08:45 pm 9.83 ft 35 cfs
Tue09/18 08:30 pm 9.83 ft 35 cfs
Tue09/18 08:15 pm 9.83 ft 35 cfs
Tue09/18 08:00 pm 9.83 ft 35 cfs
Tue09/18 07:45 pm 9.84 ft 36 cfs
Tue09/18 07:30 pm 9.83 ft 35 cfs
Tue09/18 07:15 pm 9.83 ft 35 cfs
Tue09/18 07:00 pm 9.83 ft 35 cfs
Tue09/18 06:45 pm 9.83 ft 35 cfs
Tue09/18 06:30 pm 9.83 ft 35 cfs
Tue09/18 06:15 pm 9.83 ft 35 cfs
Tue09/18 06:00 pm 9.83 ft 35 cfs
Tue09/18 05:45 pm 9.84 ft 36 cfs
Tue09/18 05:30 pm 9.84 ft 36 cfs
Tue09/18 05:15 pm 9.84 ft 36 cfs
Tue09/18 05:00 pm 9.84 ft 36 cfs
Tue09/18 04:45 pm 9.83 ft 35 cfs
Tue09/18 04:30 pm 9.82 ft 34 cfs
Tue09/18 04:15 pm 9.83 ft 35 cfs
Tue09/18 04:00 pm 9.84 ft 36 cfs
Tue09/18 03:45 pm 9.84 ft 36 cfs
Tue09/18 03:30 pm 9.82 ft 34 cfs
Tue09/18 03:15 pm 9.81 ft 33 cfs
Tue09/18 03:00 pm 9.84 ft 36 cfs
Tue09/18 02:45 pm 9.81 ft 33 cfs
Tue09/18 02:30 pm 9.84 ft 36 cfs
Tue09/18 02:15 pm 9.83 ft 35 cfs
Tue09/18 02:00 pm 9.85 ft 38 cfs
Tue09/18 01:45 pm 9.85 ft 38 cfs
Tue09/18 01:30 pm 9.83 ft 35 cfs
Tue09/18 01:15 pm 9.85 ft 38 cfs
Tue09/18 01:00 pm 9.85 ft 38 cfs
Tue09/18 12:45 pm 9.85 ft 38 cfs
Tue09/18 12:30 pm 9.85 ft 38 cfs
Tue09/18 12:15 pm 9.85 ft 38 cfs
Tue09/18 12:00 pm 9.85 ft 38 cfs
Tue09/18 11:45 am 9.85 ft 38 cfs
Tue09/18 11:30 am 9.86 ft 39 cfs
Tue09/18 11:15 am 9.86 ft 39 cfs
Tue09/18 11:00 am 9.86 ft 39 cfs
Tue09/18 10:45 am 9.86 ft 39 cfs
Tue09/18 10:30 am 9.86 ft 39 cfs
Tue09/18 10:15 am 9.86 ft 39 cfs
Tue09/18 10:00 am 9.86 ft 39 cfs
Tue09/18 09:45 am 9.86 ft 39 cfs
Tue09/18 09:30 am 9.86 ft 39 cfs

Latest Forecasts

Currently Forecasted Readings:
Tue09/18 05:00 pm 9.85 ft 38 cfs
Tue09/18 11:00 pm 9.83 ft 36 cfs
Wed09/19 05:00 am 9.82 ft 34 cfs
Wed09/19 11:00 am 9.81 ft 33 cfs
Wed09/19 05:00 pm 9.8 ft 32 cfs
Wed09/19 11:00 pm 9.8 ft 32 cfs
Thu09/20 05:00 am 9.8 ft 32 cfs
Thu09/20 11:00 am 9.79 ft 31 cfs
Thu09/20 05:00 pm 9.79 ft 31 cfs
Thu09/20 11:00 pm 9.85 ft 37 cfs
Fri09/21 05:00 am 9.84 ft 37 cfs
Fri09/21 11:00 am 9.95 ft 50 cfs
Fri09/21 05:00 pm 10.02 ft 59 cfs
Fri09/21 11:00 pm 10.07 ft 67 cfs
Sat09/22 05:00 am 10.1 ft 73 cfs
Sat09/22 11:00 am 10.01 ft 58 cfs
Sat09/22 05:00 pm 9.99 ft 55 cfs
Sat09/22 11:00 pm 9.9 ft 43 cfs
Sun09/23 05:00 am 9.85 ft 37 cfs
Sun09/23 11:00 am 9.82 ft 34 cfs
Sun09/23 05:00 pm 9.83 ft 35 cfs
Sun09/23 11:00 pm 9.81 ft 33 cfs
Mon09/24 05:00 am 9.8 ft 33 cfs
Mon09/24 11:00 am 9.79 ft 31 cfs
Mon09/24 05:00 pm 9.79 ft 30 cfs
Mon09/24 11:00 pm 9.78 ft 30 cfs
Tue09/25 05:00 am 9.77 ft 29 cfs
Tue09/25 11:00 am 9.77 ft 29 cfs
Tue09/25 05:00 pm 9.76 ft 28 cfs
Tue09/25 11:00 pm 9.76 ft 27 cfs
Wed09/26 05:00 am 9.75 ft 27 cfs
Wed09/26 11:00 am 9.75 ft 27 cfs
Wed09/26 05:00 pm 9.74 ft 26 cfs
Wed09/26 11:00 pm 9.74 ft 26 cfs
Thu09/27 05:00 am 9.74 ft 26 cfs
Thu09/27 11:00 am 9.73 ft 25 cfs
Thu09/27 05:00 pm 9.73 ft 25 cfs
Thu09/27 11:00 pm 9.73 ft 25 cfs
Fri09/28 05:00 am 9.77 ft 29 cfs

Snoqualmie River flood gauge data supplied by the
National Weather Service Northwest River Forecast Center.

Sign up for Floodzilla alerts.